Terminal Aerodrome Forecast
Issued by NWS

Home | Current Version | Previous Version | Graphics & Text | Print | Product List | Glossary On
Versions: 1 2 3 4 5 6 7 8 9 10 11 12 13
000
FTUS43 KTOP 202329
TAFFOE
TAF
KFOE 202329Z 2100/2124 11011KT P6SM BKN250
     FM210900 11007KT P6SM VCSH OVC080
     FM211200 10006KT 6SM -RA OVC030
     FM212100 06008KT 6SM -RA OVC025=

USA.gov is the U.S. government's official web portal to all federal, state and local government web resources and services.